sensor_id;sensor_type;location;lat;lon;timestamp;P1;durP1;ratioP1;P2;durP2;ratioP2
5620;SDS011;2832;50.864;12.186;2023-09-19T00:01:39;0.70;;;0.70;;
5620;SDS011;2832;50.864;12.186;2023-09-19T00:04:09;0.70;;;0.70;;
5620;SDS011;2832;50.864;12.186;2023-09-19T00:06:38;0.70;;;0.70;;
5620;SDS011;2832;50.864;12.186;2023-09-19T00:09:06;0.80;;;0.80;;
5620;SDS011;2832;50.864;12.186;2023-09-19T00:11:36;0.80;;;0.80;;
5620;SDS011;2832;50.864;12.186;2023-09-19T00:14:04;0.80;;;0.80;;
5620;SDS011;2832;50.864;12.186;2023-09-19T00:16:37;0.80;;;0.80;;
5620;SDS011;2832;50.864;12.186;2023-09-19T00:19:12;0.73;;;0.73;;
5620;SDS011;2832;50.864;12.186;2023-09-19T00:21:42;0.77;;;0.77;;
5620;SDS011;2832;50.864;12.186;2023-09-19T00:24:12;0.70;;;0.70;;
5620;SDS011;2832;50.864;12.186;2023-09-19T00:26:44;0.70;;;0.70;;
5620;SDS011;2832;50.864;12.186;2023-09-19T00:29:13;0.80;;;0.80;;
5620;SDS011;2832;50.864;12.186;2023-09-19T00:31:44;0.70;;;0.70;;
5620;SDS011;2832;50.864;12.186;2023-09-19T00:34:12;0.80;;;0.80;;
5620;SDS011;2832;50.864;12.186;2023-09-19T00:36:40;0.80;;;0.80;;
5620;SDS011;2832;50.864;12.186;2023-09-19T00:39:09;0.70;;;0.70;;
5620;SDS011;2832;50.864;12.186;2023-09-19T00:41:37;0.90;;;0.90;;
5620;SDS011;2832;50.864;12.186;2023-09-19T00:44:06;0.80;;;0.80;;
5620;SDS011;2832;50.864;12.186;2023-09-19T00:46:36;0.80;;;0.80;;
5620;SDS011;2832;50.864;12.186;2023-09-19T00:49:07;0.77;;;0.77;;
5620;SDS011;2832;50.864;12.186;2023-09-19T00:51:37;0.70;;;0.70;;
5620;SDS011;2832;50.864;12.186;2023-09-19T00:54:12;0.80;;;0.80;;
5620;SDS011;2832;50.864;12.186;2023-09-19T00:56:44;0.80;;;0.80;;
5620;SDS011;2832;50.864;12.186;2023-09-19T00:59:13;0.70;;;0.70;;
5620;SDS011;2832;50.864;12.186;2023-09-19T01:01:41;0.80;;;0.80;;
5620;SDS011;2832;50.864;12.186;2023-09-19T01:04:14;0.80;;;0.80;;
5620;SDS011;2832;50.864;12.186;2023-09-19T01:06:43;0.80;;;0.80;;
5620;SDS011;2832;50.864;12.186;2023-09-19T01:09:14;0.70;;;0.70;;
5620;SDS011;2832;50.864;12.186;2023-09-19T01:11:43;0.80;;;0.80;;
5620;SDS011;2832;50.864;12.186;2023-09-19T01:14:18;0.80;;;0.80;;
5620;SDS011;2832;50.864;12.186;2023-09-19T01:16:57;0.70;;;0.70;;
5620;SDS011;2832;50.864;12.186;2023-09-19T01:22:52;0.80;;;0.80;;
5620;SDS011;2832;50.864;12.186;2023-09-19T01:28:41;0.80;;;0.80;;
5620;SDS011;2832;50.864;12.186;2023-09-19T01:31:22;0.80;;;0.80;;
5620;SDS011;2832;50.864;12.186;2023-09-19T01:33:55;0.80;;;0.80;;
5620;SDS011;2832;50.864;12.186;2023-09-19T01:36:23;0.90;;;0.90;;
5620;SDS011;2832;50.864;12.186;2023-09-19T01:38:58;0.70;;;0.70;;
5620;SDS011;2832;50.864;12.186;2023-09-19T01:41:44;0.80;;;0.80;;
5620;SDS011;2832;50.864;12.186;2023-09-19T01:44:36;0.60;;;0.60;;
5620;SDS011;2832;50.864;12.186;2023-09-19T01:47:19;0.80;;;0.80;;
5620;SDS011;2832;50.864;12.186;2023-09-19T01:49:55;0.80;;;0.80;;
5620;SDS011;2832;50.864;12.186;2023-09-19T01:52:33;0.80;;;0.80;;
5620;SDS011;2832;50.864;12.186;2023-09-19T01:55:10;0.70;;;0.70;;
5620;SDS011;2832;50.864;12.186;2023-09-19T01:57:47;0.70;;;0.70;;
5620;SDS011;2832;50.864;12.186;2023-09-19T02:00:19;0.73;;;0.73;;
5620;SDS011;2832;50.864;12.186;2023-09-19T02:02:51;0.70;;;0.70;;
5620;SDS011;2832;50.864;12.186;2023-09-19T02:05:36;0.67;;;0.67;;
5620;SDS011;2832;50.864;12.186;2023-09-19T02:08:05;0.10;;;0.10;;
5620;SDS011;2832;50.864;12.186;2023-09-19T02:10:34;0.10;;;0.10;;
5620;SDS011;2832;50.864;12.186;2023-09-19T02:13:06;0.10;;;0.10;;
5620;SDS011;2832;50.864;12.186;2023-09-19T02:15:36;0.10;;;0.10;;
5620;SDS011;2832;50.864;12.186;2023-09-19T02:18:07;0.10;;;0.10;;
5620;SDS011;2832;50.864;12.186;2023-09-19T02:20:34;0.20;;;0.20;;
5620;SDS011;2832;50.864;12.186;2023-09-19T02:23:03;0.20;;;0.20;;
5620;SDS011;2832;50.864;12.186;2023-09-19T02:25:31;0.80;;;0.80;;
5620;SDS011;2832;50.864;12.186;2023-09-19T02:27:59;0.80;;;0.80;;
5620;SDS011;2832;50.864;12.186;2023-09-19T02:30:30;0.70;;;0.70;;
5620;SDS011;2832;50.864;12.186;2023-09-19T02:33:09;0.80;;;0.80;;
5620;SDS011;2832;50.864;12.186;2023-09-19T02:35:39;0.73;;;0.73;;
5620;SDS011;2832;50.864;12.186;2023-09-19T02:38:08;0.80;;;0.80;;
5620;SDS011;2832;50.864;12.186;2023-09-19T02:40:38;0.80;;;0.80;;
5620;SDS011;2832;50.864;12.186;2023-09-19T02:43:13;0.80;;;0.80;;
5620;SDS011;2832;50.864;12.186;2023-09-19T02:45:41;0.80;;;0.80;;
5620;SDS011;2832;50.864;12.186;2023-09-19T02:48:12;0.80;;;0.80;;
5620;SDS011;2832;50.864;12.186;2023-09-19T02:50:41;0.80;;;0.80;;
5620;SDS011;2832;50.864;12.186;2023-09-19T02:53:10;0.80;;;0.80;;
5620;SDS011;2832;50.864;12.186;2023-09-19T02:55:39;0.70;;;0.70;;
5620;SDS011;2832;50.864;12.186;2023-09-19T02:58:10;0.80;;;0.80;;
5620;SDS011;2832;50.864;12.186;2023-09-19T03:00:39;0.80;;;0.80;;
5620;SDS011;2832;50.864;12.186;2023-09-19T03:03:14;0.80;;;0.80;;
5620;SDS011;2832;50.864;12.186;2023-09-19T03:05:43;0.73;;;0.73;;
5620;SDS011;2832;50.864;12.186;2023-09-19T03:08:12;0.70;;;0.70;;
5620;SDS011;2832;50.864;12.186;2023-09-19T03:10:42;0.80;;;0.80;;
5620;SDS011;2832;50.864;12.186;2023-09-19T03:13:17;0.70;;;0.70;;
5620;SDS011;2832;50.864;12.186;2023-09-19T03:15:47;0.80;;;0.80;;
5620;SDS011;2832;50.864;12.186;2023-09-19T03:18:17;0.80;;;0.80;;
5620;SDS011;2832;50.864;12.186;2023-09-19T03:20:53;0.80;;;0.80;;
5620;SDS011;2832;50.864;12.186;2023-09-19T03:23:25;0.70;;;0.70;;
5620;SDS011;2832;50.864;12.186;2023-09-19T03:25:53;0.70;;;0.70;;
5620;SDS011;2832;50.864;12.186;2023-09-19T03:28:24;0.80;;;0.80;;
5620;SDS011;2832;50.864;12.186;2023-09-19T03:30:58;0.90;;;0.90;;
5620;SDS011;2832;50.864;12.186;2023-09-19T03:33:32;0.80;;;0.80;;
5620;SDS011;2832;50.864;12.186;2023-09-19T03:36:01;0.73;;;0.73;;
5620;SDS011;2832;50.864;12.186;2023-09-19T03:38:35;0.70;;;0.70;;
5620;SDS011;2832;50.864;12.186;2023-09-19T03:41:03;0.80;;;0.80;;
5620;SDS011;2832;50.864;12.186;2023-09-19T03:43:36;0.80;;;0.80;;
5620;SDS011;2832;50.864;12.186;2023-09-19T03:46:04;0.80;;;0.80;;
5620;SDS011;2832;50.864;12.186;2023-09-19T03:48:53;0.80;;;0.80;;
5620;SDS011;2832;50.864;12.186;2023-09-19T03:51:21;0.83;;;0.83;;
5620;SDS011;2832;50.864;12.186;2023-09-19T03:53:49;0.80;;;0.80;;
5620;SDS011;2832;50.864;12.186;2023-09-19T03:56:18;0.80;;;0.80;;
5620;SDS011;2832;50.864;12.186;2023-09-19T03:58:45;0.80;;;0.80;;
5620;SDS011;2832;50.864;12.186;2023-09-19T04:01:13;0.80;;;0.80;;
5620;SDS011;2832;50.864;12.186;2023-09-19T04:03:44;0.77;;;0.77;;
5620;SDS011;2832;50.864;12.186;2023-09-19T04:06:15;0.80;;;0.80;;
5620;SDS011;2832;50.864;12.186;2023-09-19T04:08:43;0.80;;;0.80;;
5620;SDS011;2832;50.864;12.186;2023-09-19T04:11:13;0.80;;;0.80;;
5620;SDS011;2832;50.864;12.186;2023-09-19T04:13:42;0.70;;;0.70;;
5620;SDS011;2832;50.864;12.186;2023-09-19T04:16:15;0.80;;;0.80;;
5620;SDS011;2832;50.864;12.186;2023-09-19T04:18:48;0.80;;;0.80;;
5620;SDS011;2832;50.864;12.186;2023-09-19T04:21:17;0.70;;;0.70;;
5620;SDS011;2832;50.864;12.186;2023-09-19T04:23:45;0.80;;;0.80;;
5620;SDS011;2832;50.864;12.186;2023-09-19T04:26:16;0.80;;;0.80;;
5620;SDS011;2832;50.864;12.186;2023-09-19T04:28:50;0.80;;;0.80;;
5620;SDS011;2832;50.864;12.186;2023-09-19T04:31:23;0.73;;;0.73;;
5620;SDS011;2832;50.864;12.186;2023-09-19T04:33:51;0.80;;;0.80;;
5620;SDS011;2832;50.864;12.186;2023-09-19T04:36:22;0.80;;;0.80;;
5620;SDS011;2832;50.864;12.186;2023-09-19T04:38:50;0.70;;;0.70;;
5620;SDS011;2832;50.864;12.186;2023-09-19T04:41:19;0.80;;;0.80;;
5620;SDS011;2832;50.864;12.186;2023-09-19T04:43:54;0.80;;;0.80;;
5620;SDS011;2832;50.864;12.186;2023-09-19T04:46:24;0.80;;;0.80;;
5620;SDS011;2832;50.864;12.186;2023-09-19T04:48:51;0.73;;;0.73;;
5620;SDS011;2832;50.864;12.186;2023-09-19T04:51:20;0.80;;;0.80;;
5620;SDS011;2832;50.864;12.186;2023-09-19T04:53:49;0.80;;;0.80;;
5620;SDS011;2832;50.864;12.186;2023-09-19T04:56:20;0.87;;;0.87;;
5620;SDS011;2832;50.864;12.186;2023-09-19T04:58:49;0.90;;;0.90;;
5620;SDS011;2832;50.864;12.186;2023-09-19T05:01:18;0.80;;;0.80;;
5620;SDS011;2832;50.864;12.186;2023-09-19T05:03:49;0.80;;;0.80;;
5620;SDS011;2832;50.864;12.186;2023-09-19T05:06:24;0.80;;;0.80;;
5620;SDS011;2832;50.864;12.186;2023-09-19T05:08:53;0.80;;;0.80;;
5620;SDS011;2832;50.864;12.186;2023-09-19T05:11:22;0.80;;;0.80;;
5620;SDS011;2832;50.864;12.186;2023-09-19T05:13:50;0.80;;;0.80;;
5620;SDS011;2832;50.864;12.186;2023-09-19T05:16:18;0.70;;;0.70;;
5620;SDS011;2832;50.864;12.186;2023-09-19T05:18:50;0.80;;;0.80;;
5620;SDS011;2832;50.864;12.186;2023-09-19T05:21:18;0.80;;;0.80;;
5620;SDS011;2832;50.864;12.186;2023-09-19T05:23:50;0.80;;;0.80;;
5620;SDS011;2832;50.864;12.186;2023-09-19T05:26:19;0.80;;;0.80;;
5620;SDS011;2832;50.864;12.186;2023-09-19T05:28:51;0.70;;;0.70;;
5620;SDS011;2832;50.864;12.186;2023-09-19T05:31:19;0.90;;;0.90;;
5620;SDS011;2832;50.864;12.186;2023-09-19T05:33:49;0.80;;;0.80;;
5620;SDS011;2832;50.864;12.186;2023-09-19T05:36:20;0.73;;;0.73;;
5620;SDS011;2832;50.864;12.186;2023-09-19T05:38:53;0.80;;;0.80;;
5620;SDS011;2832;50.864;12.186;2023-09-19T05:41:24;0.70;;;0.70;;
5620;SDS011;2832;50.864;12.186;2023-09-19T05:43:57;0.90;;;0.90;;
5620;SDS011;2832;50.864;12.186;2023-09-19T05:46:26;0.80;;;0.80;;
5620;SDS011;2832;50.864;12.186;2023-09-19T05:48:56;0.80;;;0.80;;
5620;SDS011;2832;50.864;12.186;2023-09-19T05:51:28;0.70;;;0.70;;
5620;SDS011;2832;50.864;12.186;2023-09-19T05:53:58;0.70;;;0.70;;
5620;SDS011;2832;50.864;12.186;2023-09-19T05:56:26;0.80;;;0.80;;
5620;SDS011;2832;50.864;12.186;2023-09-19T05:58:54;0.90;;;0.90;;
5620;SDS011;2832;50.864;12.186;2023-09-19T06:01:24;0.90;;;0.90;;
5620;SDS011;2832;50.864;12.186;2023-09-19T06:03:56;0.70;;;0.70;;
5620;SDS011;2832;50.864;12.186;2023-09-19T06:06:25;0.80;;;0.80;;
5620;SDS011;2832;50.864;12.186;2023-09-19T06:09:00;0.80;;;0.80;;
5620;SDS011;2832;50.864;12.186;2023-09-19T06:11:36;0.80;;;0.80;;
5620;SDS011;2832;50.864;12.186;2023-09-19T06:14:04;0.87;;;0.87;;
5620;SDS011;2832;50.864;12.186;2023-09-19T06:16:33;0.80;;;0.80;;
5620;SDS011;2832;50.864;12.186;2023-09-19T06:19:02;0.83;;;0.83;;
5620;SDS011;2832;50.864;12.186;2023-09-19T06:21:33;0.80;;;0.80;;
5620;SDS011;2832;50.864;12.186;2023-09-19T06:24:03;0.80;;;0.80;;
5620;SDS011;2832;50.864;12.186;2023-09-19T06:26:32;0.80;;;0.80;;
5620;SDS011;2832;50.864;12.186;2023-09-19T06:29:01;0.80;;;0.80;;
5620;SDS011;2832;50.864;12.186;2023-09-19T06:31:33;0.80;;;0.80;;
5620;SDS011;2832;50.864;12.186;2023-09-19T06:34:05;0.80;;;0.80;;
5620;SDS011;2832;50.864;12.186;2023-09-19T06:36:33;0.80;;;0.80;;
5620;SDS011;2832;50.864;12.186;2023-09-19T06:39:08;0.87;;;0.87;;
5620;SDS011;2832;50.864;12.186;2023-09-19T06:41:37;0.70;;;0.70;;
5620;SDS011;2832;50.864;12.186;2023-09-19T06:44:10;0.87;;;0.87;;
5620;SDS011;2832;50.864;12.186;2023-09-19T06:46:42;0.80;;;0.80;;
5620;SDS011;2832;50.864;12.186;2023-09-19T06:49:14;0.80;;;0.80;;
5620;SDS011;2832;50.864;12.186;2023-09-19T06:51:42;0.80;;;0.80;;
5620;SDS011;2832;50.864;12.186;2023-09-19T06:54:15;0.80;;;0.80;;
5620;SDS011;2832;50.864;12.186;2023-09-19T06:56:44;0.90;;;0.90;;
5620;SDS011;2832;50.864;12.186;2023-09-19T06:59:17;0.80;;;0.80;;
5620;SDS011;2832;50.864;12.186;2023-09-19T07:01:51;0.80;;;0.80;;
5620;SDS011;2832;50.864;12.186;2023-09-19T07:04:20;0.90;;;0.90;;
5620;SDS011;2832;50.864;12.186;2023-09-19T07:06:50;0.80;;;0.80;;
5620;SDS011;2832;50.864;12.186;2023-09-19T07:09:21;0.80;;;0.80;;
5620;SDS011;2832;50.864;12.186;2023-09-19T07:11:53;0.90;;;0.90;;
5620;SDS011;2832;50.864;12.186;2023-09-19T07:14:24;0.80;;;0.80;;
5620;SDS011;2832;50.864;12.186;2023-09-19T07:16:57;0.90;;;0.90;;
5620;SDS011;2832;50.864;12.186;2023-09-19T07:19:29;0.80;;;0.80;;
5620;SDS011;2832;50.864;12.186;2023-09-19T07:21:59;0.83;;;0.83;;
5620;SDS011;2832;50.864;12.186;2023-09-19T07:24:40;0.80;;;0.80;;
5620;SDS011;2832;50.864;12.186;2023-09-19T07:27:11;0.80;;;0.80;;
5620;SDS011;2832;50.864;12.186;2023-09-19T07:29:43;0.80;;;0.80;;
5620;SDS011;2832;50.864;12.186;2023-09-19T07:32:15;0.80;;;0.80;;
5620;SDS011;2832;50.864;12.186;2023-09-19T07:34:43;0.80;;;0.80;;
5620;SDS011;2832;50.864;12.186;2023-09-19T07:37:13;0.80;;;0.80;;
5620;SDS011;2832;50.864;12.186;2023-09-19T07:39:43;0.80;;;0.80;;
5620;SDS011;2832;50.864;12.186;2023-09-19T07:42:17;0.80;;;0.80;;
5620;SDS011;2832;50.864;12.186;2023-09-19T07:44:47;0.80;;;0.80;;
5620;SDS011;2832;50.864;12.186;2023-09-19T07:47:20;0.80;;;0.80;;
5620;SDS011;2832;50.864;12.186;2023-09-19T07:49:49;0.70;;;0.70;;
5620;SDS011;2832;50.864;12.186;2023-09-19T07:52:25;0.80;;;0.80;;
5620;SDS011;2832;50.864;12.186;2023-09-19T07:55:00;0.80;;;0.80;;
5620;SDS011;2832;50.864;12.186;2023-09-19T07:57:56;0.80;;;0.80;;
5620;SDS011;2832;50.864;12.186;2023-09-19T08:00:26;0.80;;;0.80;;
5620;SDS011;2832;50.864;12.186;2023-09-19T08:02:55;0.80;;;0.80;;
5620;SDS011;2832;50.864;12.186;2023-09-19T08:05:25;0.90;;;0.90;;
5620;SDS011;2832;50.864;12.186;2023-09-19T08:07:53;0.80;;;0.80;;
5620;SDS011;2832;50.864;12.186;2023-09-19T08:10:33;0.80;;;0.80;;
5620;SDS011;2832;50.864;12.186;2023-09-19T08:13:05;0.80;;;0.80;;
5620;SDS011;2832;50.864;12.186;2023-09-19T08:15:37;0.80;;;0.80;;
5620;SDS011;2832;50.864;12.186;2023-09-19T08:18:11;0.80;;;0.80;;
5620;SDS011;2832;50.864;12.186;2023-09-19T08:20:40;0.90;;;0.90;;
5620;SDS011;2832;50.864;12.186;2023-09-19T08:23:12;0.80;;;0.80;;
5620;SDS011;2832;50.864;12.186;2023-09-19T08:25:44;0.80;;;0.80;;
5620;SDS011;2832;50.864;12.186;2023-09-19T08:28:13;0.80;;;0.80;;
5620;SDS011;2832;50.864;12.186;2023-09-19T08:30:45;0.70;;;0.70;;
5620;SDS011;2832;50.864;12.186;2023-09-19T08:33:16;0.70;;;0.70;;
5620;SDS011;2832;50.864;12.186;2023-09-19T08:36:03;0.80;;;0.80;;
5620;SDS011;2832;50.864;12.186;2023-09-19T08:38:33;0.83;;;0.83;;
5620;SDS011;2832;50.864;12.186;2023-09-19T08:41:16;0.90;;;0.90;;
5620;SDS011;2832;50.864;12.186;2023-09-19T08:43:46;0.80;;;0.80;;
5620;SDS011;2832;50.864;12.186;2023-09-19T08:46:19;0.80;;;0.80;;
5620;SDS011;2832;50.864;12.186;2023-09-19T08:49:03;0.80;;;0.80;;
5620;SDS011;2832;50.864;12.186;2023-09-19T08:51:41;0.80;;;0.80;;
5620;SDS011;2832;50.864;12.186;2023-09-19T08:54:19;0.80;;;0.80;;
5620;SDS011;2832;50.864;12.186;2023-09-19T08:56:59;0.70;;;0.70;;
5620;SDS011;2832;50.864;12.186;2023-09-19T08:59:35;0.80;;;0.80;;
5620;SDS011;2832;50.864;12.186;2023-09-19T09:02:20;0.70;;;0.70;;
5620;SDS011;2832;50.864;12.186;2023-09-19T09:04:51;0.80;;;0.80;;
5620;SDS011;2832;50.864;12.186;2023-09-19T09:07:21;0.87;;;0.87;;
5620;SDS011;2832;50.864;12.186;2023-09-19T09:10:04;0.80;;;0.80;;
5620;SDS011;2832;50.864;12.186;2023-09-19T09:12:39;0.80;;;0.80;;
5620;SDS011;2832;50.864;12.186;2023-09-19T09:15:09;0.80;;;0.80;;
5620;SDS011;2832;50.864;12.186;2023-09-19T09:17:43;0.80;;;0.80;;
5620;SDS011;2832;50.864;12.186;2023-09-19T09:20:17;0.80;;;0.80;;
5620;SDS011;2832;50.864;12.186;2023-09-19T09:22:51;0.80;;;0.80;;
5620;SDS011;2832;50.864;12.186;2023-09-19T09:25:49;0.80;;;0.80;;
5620;SDS011;2832;50.864;12.186;2023-09-19T09:28:33;0.80;;;0.80;;
5620;SDS011;2832;50.864;12.186;2023-09-19T09:31:11;0.80;;;0.80;;
5620;SDS011;2832;50.864;12.186;2023-09-19T09:33:53;0.80;;;0.80;;
5620;SDS011;2832;50.864;12.186;2023-09-19T09:36:36;0.80;;;0.80;;
5620;SDS011;2832;50.864;12.186;2023-09-19T09:39:07;0.80;;;0.80;;
5620;SDS011;2832;50.864;12.186;2023-09-19T09:41:50;0.80;;;0.80;;
5620;SDS011;2832;50.864;12.186;2023-09-19T09:44:21;0.70;;;0.70;;
5620;SDS011;2832;50.864;12.186;2023-09-19T09:46:54;0.80;;;0.80;;
5620;SDS011;2832;50.864;12.186;2023-09-19T09:49:48;0.80;;;0.80;;
5620;SDS011;2832;50.864;12.186;2023-09-19T09:52:20;0.80;;;0.80;;
5620;SDS011;2832;50.864;12.186;2023-09-19T09:54:59;0.90;;;0.90;;
5620;SDS011;2832;50.864;12.186;2023-09-19T09:57:32;0.80;;;0.80;;
5620;SDS011;2832;50.864;12.186;2023-09-19T10:00:07;0.80;;;0.80;;
5620;SDS011;2832;50.864;12.186;2023-09-19T10:02:47;0.77;;;0.77;;
5620;SDS011;2832;50.864;12.186;2023-09-19T10:05:17;0.80;;;0.80;;
5620;SDS011;2832;50.864;12.186;2023-09-19T10:07:56;0.80;;;0.80;;
5620;SDS011;2832;50.864;12.186;2023-09-19T10:10:39;0.80;;;0.80;;
5620;SDS011;2832;50.864;12.186;2023-09-19T10:13:22;0.80;;;0.80;;
5620;SDS011;2832;50.864;12.186;2023-09-19T10:15:56;0.80;;;0.80;;
5620;SDS011;2832;50.864;12.186;2023-09-19T10:18:32;0.80;;;0.80;;
5620;SDS011;2832;50.864;12.186;2023-09-19T10:21:07;0.80;;;0.80;;
5620;SDS011;2832;50.864;12.186;2023-09-19T10:23:39;0.70;;;0.70;;
5620;SDS011;2832;50.864;12.186;2023-09-19T10:26:11;0.90;;;0.90;;
5620;SDS011;2832;50.864;12.186;2023-09-19T10:28:43;0.80;;;0.80;;
5620;SDS011;2832;50.864;12.186;2023-09-19T10:31:50;0.80;;;0.80;;
5620;SDS011;2832;50.864;12.186;2023-09-19T10:34:30;0.80;;;0.80;;
5620;SDS011;2832;50.864;12.186;2023-09-19T10:37:02;0.80;;;0.80;;
5620;SDS011;2832;50.864;12.186;2023-09-19T10:39:33;0.80;;;0.80;;
5620;SDS011;2832;50.864;12.186;2023-09-19T10:42:06;0.80;;;0.80;;
5620;SDS011;2832;50.864;12.186;2023-09-19T10:44:50;0.70;;;0.70;;
5620;SDS011;2832;50.864;12.186;2023-09-19T10:47:36;0.80;;;0.80;;
5620;SDS011;2832;50.864;12.186;2023-09-19T10:50:06;0.80;;;0.80;;
5620;SDS011;2832;50.864;12.186;2023-09-19T10:52:48;0.80;;;0.80;;
5620;SDS011;2832;50.864;12.186;2023-09-19T10:55:36;0.80;;;0.80;;
5620;SDS011;2832;50.864;12.186;2023-09-19T10:58:08;0.80;;;0.80;;
5620;SDS011;2832;50.864;12.186;2023-09-19T11:00:51;0.70;;;0.70;;
5620;SDS011;2832;50.864;12.186;2023-09-19T11:03:34;0.80;;;0.80;;
5620;SDS011;2832;50.864;12.186;2023-09-19T11:06:10;0.80;;;0.80;;
5620;SDS011;2832;50.864;12.186;2023-09-19T11:08:59;0.77;;;0.77;;
5620;SDS011;2832;50.864;12.186;2023-09-19T11:11:51;0.70;;;0.70;;
5620;SDS011;2832;50.864;12.186;2023-09-19T11:14:32;0.80;;;0.80;;
5620;SDS011;2832;50.864;12.186;2023-09-19T11:20:24;0.87;;;0.87;;
5620;SDS011;2832;50.864;12.186;2023-09-19T11:23:20;0.80;;;0.80;;
5620;SDS011;2832;50.864;12.186;2023-09-19T11:25:58;0.80;;;0.80;;
5620;SDS011;2832;50.864;12.186;2023-09-19T11:28:35;0.80;;;0.80;;
5620;SDS011;2832;50.864;12.186;2023-09-19T11:34:40;0.90;;;0.90;;
5620;SDS011;2832;50.864;12.186;2023-09-19T11:40:56;0.80;;;0.80;;
5620;SDS011;2832;50.864;12.186;2023-09-19T11:46:59;0.80;;;0.80;;
5620;SDS011;2832;50.864;12.186;2023-09-19T11:49:30;0.80;;;0.80;;
5620;SDS011;2832;50.864;12.186;2023-09-19T11:52:01;0.80;;;0.80;;
5620;SDS011;2832;50.864;12.186;2023-09-19T11:54:33;0.90;;;0.90;;
5620;SDS011;2832;50.864;12.186;2023-09-19T11:57:12;0.80;;;0.80;;
5620;SDS011;2832;50.864;12.186;2023-09-19T11:59:57;0.70;;;0.70;;
5620;SDS011;2832;50.864;12.186;2023-09-19T12:02:37;0.80;;;0.80;;
5620;SDS011;2832;50.864;12.186;2023-09-19T12:05:28;0.80;;;0.80;;
5620;SDS011;2832;50.864;12.186;2023-09-19T12:08:06;0.80;;;0.80;;
5620;SDS011;2832;50.864;12.186;2023-09-19T12:10:46;0.80;;;0.80;;
5620;SDS011;2832;50.864;12.186;2023-09-19T12:13:22;0.80;;;0.80;;
5620;SDS011;2832;50.864;12.186;2023-09-19T12:15:51;0.83;;;0.83;;
5620;SDS011;2832;50.864;12.186;2023-09-19T12:18:30;0.80;;;0.80;;
5620;SDS011;2832;50.864;12.186;2023-09-19T12:21:01;0.80;;;0.80;;
5620;SDS011;2832;50.864;12.186;2023-09-19T12:23:38;0.80;;;0.80;;
5620;SDS011;2832;50.864;12.186;2023-09-19T12:26:09;0.80;;;0.80;;
5620;SDS011;2832;50.864;12.186;2023-09-19T12:28:44;0.80;;;0.80;;
5620;SDS011;2832;50.864;12.186;2023-09-19T12:31:13;0.70;;;0.70;;
5620;SDS011;2832;50.864;12.186;2023-09-19T12:33:44;0.87;;;0.87;;
5620;SDS011;2832;50.864;12.186;2023-09-19T12:36:21;0.90;;;0.90;;
5620;SDS011;2832;50.864;12.186;2023-09-19T12:39:00;0.80;;;0.80;;
5620;SDS011;2832;50.864;12.186;2023-09-19T12:42:18;0.90;;;0.90;;
5620;SDS011;2832;50.864;12.186;2023-09-19T12:45:06;0.90;;;0.90;;
5620;SDS011;2832;50.864;12.186;2023-09-19T12:47:36;0.87;;;0.87;;
5620;SDS011;2832;50.864;12.186;2023-09-19T12:50:10;0.87;;;0.87;;
5620;SDS011;2832;50.864;12.186;2023-09-19T12:53:03;0.90;;;0.90;;
5620;SDS011;2832;50.864;12.186;2023-09-19T12:55:57;0.80;;;0.80;;
5620;SDS011;2832;50.864;12.186;2023-09-19T12:58:47;0.77;;;0.77;;
5620;SDS011;2832;50.864;12.186;2023-09-19T13:01:19;0.80;;;0.80;;
5620;SDS011;2832;50.864;12.186;2023-09-19T13:06:48;0.80;;;0.80;;
5620;SDS011;2832;50.864;12.186;2023-09-19T13:09:17;0.70;;;0.70;;
5620;SDS011;2832;50.864;12.186;2023-09-19T13:11:51;0.80;;;0.80;;
5620;SDS011;2832;50.864;12.186;2023-09-19T13:14:22;0.80;;;0.80;;
5620;SDS011;2832;50.864;12.186;2023-09-19T13:17:10;0.80;;;0.80;;
5620;SDS011;2832;50.864;12.186;2023-09-19T13:19:53;0.80;;;0.80;;
5620;SDS011;2832;50.864;12.186;2023-09-19T13:22:40;0.80;;;0.80;;
5620;SDS011;2832;50.864;12.186;2023-09-19T13:25:18;0.80;;;0.80;;
5620;SDS011;2832;50.864;12.186;2023-09-19T13:28:05;0.80;;;0.80;;
5620;SDS011;2832;50.864;12.186;2023-09-19T13:33:45;0.70;;;0.70;;
5620;SDS011;2832;50.864;12.186;2023-09-19T13:39:03;0.80;;;0.80;;
5620;SDS011;2832;50.864;12.186;2023-09-19T13:41:34;0.80;;;0.80;;
5620;SDS011;2832;50.864;12.186;2023-09-19T13:44:04;0.80;;;0.80;;
5620;SDS011;2832;50.864;12.186;2023-09-19T13:46:38;0.77;;;0.77;;
5620;SDS011;2832;50.864;12.186;2023-09-19T13:49:22;0.87;;;0.87;;
5620;SDS011;2832;50.864;12.186;2023-09-19T13:51:55;0.80;;;0.80;;
5620;SDS011;2832;50.864;12.186;2023-09-19T13:54:29;0.80;;;0.80;;
5620;SDS011;2832;50.864;12.186;2023-09-19T13:56:57;0.80;;;0.80;;
5620;SDS011;2832;50.864;12.186;2023-09-19T13:59:26;0.70;;;0.70;;
5620;SDS011;2832;50.864;12.186;2023-09-19T14:01:54;0.90;;;0.90;;
5620;SDS011;2832;50.864;12.186;2023-09-19T14:04:27;0.80;;;0.80;;
5620;SDS011;2832;50.864;12.186;2023-09-19T14:06:57;0.80;;;0.80;;
5620;SDS011;2832;50.864;12.186;2023-09-19T14:09:26;0.80;;;0.80;;
5620;SDS011;2832;50.864;12.186;2023-09-19T14:11:56;0.90;;;0.90;;
5620;SDS011;2832;50.864;12.186;2023-09-19T14:14:37;0.80;;;0.80;;
5620;SDS011;2832;50.864;12.186;2023-09-19T14:17:17;0.83;;;0.83;;
5620;SDS011;2832;50.864;12.186;2023-09-19T14:19:56;0.87;;;0.87;;
5620;SDS011;2832;50.864;12.186;2023-09-19T14:22:30;0.80;;;0.80;;
5620;SDS011;2832;50.864;12.186;2023-09-19T14:25:02;0.70;;;0.70;;
5620;SDS011;2832;50.864;12.186;2023-09-19T14:27:34;0.80;;;0.80;;
5620;SDS011;2832;50.864;12.186;2023-09-19T14:30:03;0.77;;;0.77;;
5620;SDS011;2832;50.864;12.186;2023-09-19T14:32:33;0.80;;;0.80;;
5620;SDS011;2832;50.864;12.186;2023-09-19T14:35:19;0.80;;;0.80;;
5620;SDS011;2832;50.864;12.186;2023-09-19T14:37:50;0.80;;;0.80;;
5620;SDS011;2832;50.864;12.186;2023-09-19T14:40:18;0.80;;;0.80;;
5620;SDS011;2832;50.864;12.186;2023-09-19T14:42:48;0.80;;;0.80;;
5620;SDS011;2832;50.864;12.186;2023-09-19T14:45:17;0.80;;;0.80;;
5620;SDS011;2832;50.864;12.186;2023-09-19T14:47:55;0.70;;;0.70;;
5620;SDS011;2832;50.864;12.186;2023-09-19T14:53:12;0.80;;;0.80;;
5620;SDS011;2832;50.864;12.186;2023-09-19T14:55:40;0.80;;;0.80;;
5620;SDS011;2832;50.864;12.186;2023-09-19T14:58:11;0.80;;;0.80;;
5620;SDS011;2832;50.864;12.186;2023-09-19T15:00:39;0.80;;;0.80;;
5620;SDS011;2832;50.864;12.186;2023-09-19T15:03:09;0.73;;;0.73;;
5620;SDS011;2832;50.864;12.186;2023-09-19T15:05:45;0.80;;;0.80;;
5620;SDS011;2832;50.864;12.186;2023-09-19T15:08:18;0.80;;;0.80;;
5620;SDS011;2832;50.864;12.186;2023-09-19T15:10:51;0.70;;;0.70;;
5620;SDS011;2832;50.864;12.186;2023-09-19T15:13:32;0.80;;;0.80;;
5620;SDS011;2832;50.864;12.186;2023-09-19T15:16:04;0.80;;;0.80;;
5620;SDS011;2832;50.864;12.186;2023-09-19T15:18:39;0.80;;;0.80;;
5620;SDS011;2832;50.864;12.186;2023-09-19T15:21:14;0.80;;;0.80;;
5620;SDS011;2832;50.864;12.186;2023-09-19T15:23:46;0.80;;;0.80;;
5620;SDS011;2832;50.864;12.186;2023-09-19T15:26:18;0.70;;;0.70;;
5620;SDS011;2832;50.864;12.186;2023-09-19T15:28:57;0.80;;;0.80;;
5620;SDS011;2832;50.864;12.186;2023-09-19T15:31:36;0.80;;;0.80;;
5620;SDS011;2832;50.864;12.186;2023-09-19T15:34:33;0.80;;;0.80;;
5620;SDS011;2832;50.864;12.186;2023-09-19T15:37:06;0.80;;;0.80;;
5620;SDS011;2832;50.864;12.186;2023-09-19T15:39:37;0.70;;;0.70;;
5620;SDS011;2832;50.864;12.186;2023-09-19T15:42:11;0.80;;;0.80;;
5620;SDS011;2832;50.864;12.186;2023-09-19T15:44:43;0.70;;;0.70;;
5620;SDS011;2832;50.864;12.186;2023-09-19T15:47:17;0.80;;;0.80;;
5620;SDS011;2832;50.864;12.186;2023-09-19T15:49:51;0.70;;;0.70;;
5620;SDS011;2832;50.864;12.186;2023-09-19T15:52:32;0.80;;;0.80;;
5620;SDS011;2832;50.864;12.186;2023-09-19T15:55:05;0.80;;;0.80;;
5620;SDS011;2832;50.864;12.186;2023-09-19T15:57:57;0.70;;;0.70;;
5620;SDS011;2832;50.864;12.186;2023-09-19T16:00:26;0.83;;;0.83;;
5620;SDS011;2832;50.864;12.186;2023-09-19T16:02:55;0.80;;;0.80;;
5620;SDS011;2832;50.864;12.186;2023-09-19T16:05:26;0.80;;;0.80;;
5620;SDS011;2832;50.864;12.186;2023-09-19T16:08:04;0.80;;;0.80;;
5620;SDS011;2832;50.864;12.186;2023-09-19T16:10:36;0.80;;;0.80;;
5620;SDS011;2832;50.864;12.186;2023-09-19T16:13:05;0.83;;;0.83;;